EJA337 KVGT-KSDL
Flight info
| Callsign | EJA337 |
|---|---|
| Flight time | 0h 44m |
| Altitude | 29000 |
| Route | NOTWN5 LAS RASLR ROHCK ZAYNE KIDDR DSERT2 |
| Aircraft | E55P/M-SBDGRW/LB2 |
Departure
| Time | 2026-04-24 13:22 |
|---|---|
| Airport | North Las Vegas Airport (KVGT) |
Arrival
| Time | 2026-04-24 14:07 |
|---|---|
| Airport | Scottsdale Airport (KSDL) |
| Time | Latitude | Longitude | Altitude | Speed | Heading |
|---|---|---|---|---|---|
| 2026-04-24 12:52 | 36.20926 | -115.19875 | 2198 ft | 0 kts | 314° |
| 2026-04-24 13:16 | 36.20927 | -115.19876 | 2197 ft | 1 kts | 314° |
| 2026-04-24 13:16 | 36.20955 | -115.19872 | 2197 ft | 6 kts | 45° |
| 2026-04-24 13:16 | 36.21001 | -115.19864 | 2197 ft | 7 kts | 328° |
| 2026-04-24 13:17 | 36.21033 | -115.19840 | 2197 ft | 7 kts | 117° |
| 2026-04-24 13:17 | 36.20976 | -115.19763 | 2194 ft | 16 kts | 134° |
| 2026-04-24 13:17 | 36.20888 | -115.19652 | 2192 ft | 19 kts | 134° |
| 2026-04-24 13:17 | 36.20789 | -115.19527 | 2186 ft | 22 kts | 135° |
| 2026-04-24 13:18 | 36.20683 | -115.19393 | 2181 ft | 22 kts | 135° |
| 2026-04-24 13:18 | 36.20591 | -115.19276 | 2176 ft | 17 kts | 135° |
| 2026-04-24 13:18 | 36.20513 | -115.19178 | 2171 ft | 10 kts | 134° |
| 2026-04-24 13:18 | 36.20477 | -115.19132 | 2169 ft | 2 kts | 120° |
| 2026-04-24 13:19 | 36.20475 | -115.19127 | 2169 ft | 0 kts | 108° |
| 2026-04-24 13:21 | 36.20474 | -115.19125 | 2169 ft | 1 kts | 106° |
| 2026-04-24 13:21 | 36.20489 | -115.19089 | 2168 ft | 7 kts | 41° |
| 2026-04-24 13:21 | 36.20530 | -115.19083 | 2169 ft | 6 kts | 317° |
| 2026-04-24 13:22 | 36.20667 | -115.19256 | 2177 ft | 64 kts | 314° |
| 2026-04-24 13:22 | 36.21162 | -115.19880 | 2218 ft | 131 kts | 314° |
| 2026-04-24 13:22 | 36.21840 | -115.20763 | 2744 ft | 151 kts | 309° |
| 2026-04-24 13:22 | 36.22288 | -115.21981 | 3334 ft | 168 kts | 282° |
| 2026-04-24 13:23 | 36.22524 | -115.23462 | 3846 ft | 188 kts | 280° |
| 2026-04-24 13:23 | 36.22760 | -115.25142 | 4310 ft | 207 kts | 280° |
| 2026-04-24 13:23 | 36.23012 | -115.26908 | 4733 ft | 210 kts | 282° |
| 2026-04-24 13:23 | 36.23674 | -115.28468 | 4940 ft | 209 kts | 319° |
| 2026-04-24 13:24 | 36.24958 | -115.29313 | 4992 ft | 210 kts | 347° |
| 2026-04-24 13:24 | 36.26385 | -115.29119 | 5087 ft | 213 kts | 29° |
| 2026-04-24 13:24 | 36.27337 | -115.27750 | 5400 ft | 219 kts | 73° |
| 2026-04-24 13:24 | 36.27276 | -115.25906 | 5748 ft | 222 kts | 115° |
| 2026-04-24 13:25 | 36.26229 | -115.24568 | 6057 ft | 217 kts | 156° |
| 2026-04-24 13:25 | 36.24752 | -115.24338 | 6328 ft | 218 kts | 184° |
| 2026-04-24 13:25 | 36.23219 | -115.24257 | 6657 ft | 225 kts | 169° |
| 2026-04-24 13:25 | 36.21694 | -115.23714 | 7158 ft | 232 kts | 161° |
| 2026-04-24 13:26 | 36.20198 | -115.22963 | 7945 ft | 240 kts | 151° |
| 2026-04-24 13:26 | 36.18883 | -115.21635 | 8745 ft | 249 kts | 133° |
| 2026-04-24 13:26 | 36.17768 | -115.19988 | 9532 ft | 256 kts | 129° |
| 2026-04-24 13:26 | 36.16676 | -115.18232 | 10379 ft | 261 kts | 128° |
| 2026-04-24 13:27 | 36.15593 | -115.16464 | 11215 ft | 265 kts | 128° |
| 2026-04-24 13:27 | 36.14473 | -115.14625 | 12021 ft | 270 kts | 129° |
| 2026-04-24 13:27 | 36.13329 | -115.12747 | 12759 ft | 278 kts | 129° |
| 2026-04-24 13:27 | 36.12156 | -115.10828 | 13511 ft | 286 kts | 129° |
| 2026-04-24 13:28 | 36.10950 | -115.08847 | 14187 ft | 293 kts | 129° |
| 2026-04-24 13:28 | 36.09721 | -115.06827 | 14977 ft | 297 kts | 129° |
| 2026-04-24 13:28 | 36.08487 | -115.04803 | 15736 ft | 301 kts | 130° |
| 2026-04-24 13:28 | 36.07215 | -115.02721 | 16459 ft | 307 kts | 130° |
| 2026-04-24 13:29 | 36.05928 | -115.00613 | 17173 ft | 312 kts | 130° |
| 2026-04-24 13:29 | 36.04628 | -114.98483 | 17908 ft | 316 kts | 130° |
| 2026-04-24 13:29 | 36.03301 | -114.96311 | 18569 ft | 321 kts | 130° |
| 2026-04-24 13:29 | 36.01939 | -114.94087 | 19232 ft | 325 kts | 130° |
| 2026-04-24 13:30 | 36.00568 | -114.91846 | 19850 ft | 329 kts | 130° |
| 2026-04-24 13:30 | 35.99194 | -114.89603 | 20437 ft | 334 kts | 131° |
| 2026-04-24 13:30 | 35.97788 | -114.87311 | 21029 ft | 339 kts | 131° |
| 2026-04-24 13:30 | 35.96362 | -114.84985 | 21626 ft | 342 kts | 131° |
| 2026-04-24 13:31 | 35.94927 | -114.82648 | 22211 ft | 346 kts | 131° |
| 2026-04-24 13:31 | 35.93469 | -114.80272 | 22781 ft | 351 kts | 131° |
| 2026-04-24 13:31 | 35.91986 | -114.77860 | 23393 ft | 354 kts | 132° |
| 2026-04-24 13:31 | 35.90499 | -114.75443 | 23981 ft | 359 kts | 132° |
| 2026-04-24 13:32 | 35.88985 | -114.72987 | 24562 ft | 363 kts | 132° |
| 2026-04-24 13:32 | 35.87446 | -114.70489 | 25112 ft | 367 kts | 132° |
| 2026-04-24 13:32 | 35.85913 | -114.68002 | 25673 ft | 371 kts | 132° |
| 2026-04-24 13:32 | 35.84340 | -114.65452 | 26245 ft | 375 kts | 132° |
| 2026-04-24 13:33 | 35.82771 | -114.62912 | 26767 ft | 379 kts | 132° |
| 2026-04-24 13:33 | 35.81156 | -114.60295 | 27314 ft | 383 kts | 132° |
| 2026-04-24 13:33 | 35.79546 | -114.57691 | 27826 ft | 386 kts | 133° |
| 2026-04-24 13:33 | 35.77918 | -114.55060 | 28330 ft | 390 kts | 133° |
| 2026-04-24 13:34 | 35.76263 | -114.52388 | 28781 ft | 395 kts | 133° |
| 2026-04-24 13:34 | 35.74573 | -114.49663 | 28917 ft | 408 kts | 133° |
| 2026-04-24 13:34 | 35.72822 | -114.46851 | 28946 ft | 424 kts | 132° |
| 2026-04-24 13:34 | 35.70999 | -114.43911 | 28957 ft | 439 kts | 132° |
| 2026-04-24 13:35 | 35.69134 | -114.40913 | 28949 ft | 455 kts | 128° |
| 2026-04-24 13:35 | 35.67800 | -114.37270 | 28996 ft | 473 kts | 111° |
| 2026-04-24 13:35 | 35.65171 | -114.29699 | 28975 ft | 492 kts | 117° |
| 2026-04-24 13:36 | 35.62320 | -114.22082 | 28978 ft | 495 kts | 118° |
| 2026-04-24 13:36 | 35.59438 | -114.14435 | 28971 ft | 497 kts | 118° |
| 2026-04-24 13:37 | 35.56524 | -114.06723 | 28971 ft | 498 kts | 118° |
| 2026-04-24 13:37 | 35.53608 | -113.99035 | 28972 ft | 500 kts | 118° |
| 2026-04-24 13:38 | 35.50664 | -113.91280 | 28980 ft | 501 kts | 117° |
| 2026-04-24 13:38 | 35.47725 | -113.83557 | 29001 ft | 502 kts | 118° |
| 2026-04-24 13:39 | 35.44786 | -113.75853 | 29016 ft | 503 kts | 118° |
| 2026-04-24 13:39 | 35.41811 | -113.68076 | 29021 ft | 503 kts | 118° |
| 2026-04-24 13:40 | 35.38854 | -113.60359 | 29026 ft | 504 kts | 118° |
| 2026-04-24 13:40 | 35.35847 | -113.52539 | 29034 ft | 506 kts | 118° |
| 2026-04-24 13:41 | 35.32850 | -113.44767 | 29040 ft | 507 kts | 117° |
| 2026-04-24 13:41 | 35.29854 | -113.37005 | 29038 ft | 508 kts | 118° |
| 2026-04-24 13:42 | 35.26841 | -113.29218 | 29029 ft | 508 kts | 118° |
| 2026-04-24 13:42 | 35.23821 | -113.21439 | 29034 ft | 508 kts | 118° |
| 2026-04-24 13:43 | 35.20804 | -113.13682 | 29039 ft | 508 kts | 118° |
| 2026-04-24 13:43 | 35.17767 | -113.05894 | 29035 ft | 508 kts | 118° |
| 2026-04-24 13:44 | 35.14732 | -112.98133 | 29037 ft | 508 kts | 118° |
| 2026-04-24 13:44 | 35.11692 | -112.90374 | 29035 ft | 508 kts | 118° |
| 2026-04-24 13:45 | 35.08635 | -112.82582 | 29040 ft | 508 kts | 118° |
| 2026-04-24 13:45 | 35.05569 | -112.74802 | 28807 ft | 514 kts | 118° |
| 2026-04-24 13:46 | 35.04029 | -112.70888 | 28392 ft | 511 kts | 118° |
| 2026-04-24 13:46 | 35.02506 | -112.67038 | 27753 ft | 510 kts | 118° |
| 2026-04-24 13:46 | 35.00961 | -112.63133 | 27049 ft | 508 kts | 118° |
| 2026-04-24 13:46 | 34.99449 | -112.59303 | 26358 ft | 503 kts | 118° |
| 2026-04-24 13:47 | 34.97935 | -112.55483 | 25667 ft | 497 kts | 118° |
| 2026-04-24 13:47 | 34.96446 | -112.51730 | 25003 ft | 489 kts | 118° |
| 2026-04-24 13:47 | 34.94978 | -112.48031 | 24344 ft | 482 kts | 118° |
| 2026-04-24 13:47 | 34.93224 | -112.44685 | 23689 ft | 470 kts | 131° |
| 2026-04-24 13:48 | 34.91270 | -112.41537 | 23044 ft | 467 kts | 130° |
| 2026-04-24 13:48 | 34.89319 | -112.38423 | 22416 ft | 464 kts | 130° |
| 2026-04-24 13:48 | 34.87382 | -112.35306 | 21803 ft | 461 kts | 130° |
| 2026-04-24 13:48 | 34.85444 | -112.32188 | 21189 ft | 457 kts | 130° |
| 2026-04-24 13:49 | 34.83550 | -112.29149 | 20598 ft | 453 kts | 130° |
| 2026-04-24 13:49 | 34.81663 | -112.26122 | 19994 ft | 446 kts | 130° |
| 2026-04-24 13:49 | 34.79796 | -112.23127 | 19412 ft | 440 kts | 130° |
| 2026-04-24 13:49 | 34.77978 | -112.20213 | 19093 ft | 432 kts | 130° |
| 2026-04-24 13:50 | 34.76155 | -112.17294 | 19041 ft | 431 kts | 130° |
| 2026-04-24 13:50 | 34.74343 | -112.14387 | 19032 ft | 430 kts | 130° |
| 2026-04-24 13:50 | 34.72536 | -112.11492 | 19033 ft | 429 kts | 130° |
| 2026-04-24 13:50 | 34.70742 | -112.08617 | 19045 ft | 428 kts | 130° |
| 2026-04-24 13:51 | 34.68963 | -112.05773 | 19047 ft | 428 kts | 130° |
| 2026-04-24 13:51 | 34.67160 | -112.02891 | 19040 ft | 427 kts | 130° |
| 2026-04-24 13:51 | 34.65355 | -112.00005 | 19042 ft | 427 kts | 130° |
| 2026-04-24 13:51 | 34.63570 | -111.97160 | 19027 ft | 427 kts | 130° |
| 2026-04-24 13:52 | 34.61767 | -111.94282 | 19022 ft | 427 kts | 130° |
| 2026-04-24 13:52 | 34.59975 | -111.91428 | 19010 ft | 426 kts | 130° |
| 2026-04-24 13:52 | 34.58113 | -111.88651 | 18992 ft | 422 kts | 140° |
| 2026-04-24 13:52 | 34.55784 | -111.86543 | 18996 ft | 412 kts | 156° |
| 2026-04-24 13:53 | 34.53150 | -111.85397 | 19017 ft | 400 kts | 172° |
| 2026-04-24 13:53 | 34.50447 | -111.84674 | 18853 ft | 403 kts | 175° |
| 2026-04-24 13:53 | 34.47678 | -111.84093 | 18442 ft | 405 kts | 176° |
| 2026-04-24 13:53 | 34.44897 | -111.83550 | 17950 ft | 403 kts | 177° |
| 2026-04-24 13:54 | 34.42172 | -111.83038 | 17462 ft | 392 kts | 177° |
| 2026-04-24 13:54 | 34.39521 | -111.82543 | 16998 ft | 380 kts | 177° |
| 2026-04-24 13:54 | 34.36915 | -111.82059 | 16549 ft | 370 kts | 177° |
| 2026-04-24 13:54 | 34.34402 | -111.81592 | 16126 ft | 361 kts | 177° |
| 2026-04-24 13:55 | 34.31949 | -111.81142 | 15706 ft | 353 kts | 177° |
| 2026-04-24 13:55 | 34.29549 | -111.80697 | 15287 ft | 347 kts | 177° |
| 2026-04-24 13:55 | 34.27204 | -111.80265 | 14874 ft | 341 kts | 177° |
| 2026-04-24 13:55 | 34.24863 | -111.79836 | 14432 ft | 337 kts | 177° |
| 2026-04-24 13:56 | 34.22549 | -111.79409 | 13991 ft | 333 kts | 177° |
| 2026-04-24 13:56 | 34.20281 | -111.78990 | 13557 ft | 330 kts | 177° |
| 2026-04-24 13:56 | 34.18013 | -111.78574 | 13121 ft | 327 kts | 176° |
| 2026-04-24 13:56 | 34.15769 | -111.78163 | 12720 ft | 323 kts | 176° |
| 2026-04-24 13:57 | 34.13583 | -111.77761 | 12348 ft | 318 kts | 176° |
| 2026-04-24 13:57 | 34.11406 | -111.77359 | 12108 ft | 311 kts | 176° |
| 2026-04-24 13:57 | 34.09297 | -111.77223 | 12051 ft | 299 kts | 194° |
| 2026-04-24 13:57 | 34.07306 | -111.77844 | 11983 ft | 291 kts | 198° |
| 2026-04-24 13:58 | 34.05366 | -111.78419 | 11705 ft | 286 kts | 199° |
| 2026-04-24 13:58 | 34.03455 | -111.78999 | 11340 ft | 282 kts | 198° |
| 2026-04-24 13:58 | 34.01556 | -111.79572 | 10975 ft | 278 kts | 198° |
| 2026-04-24 13:58 | 33.99703 | -111.80130 | 10603 ft | 270 kts | 198° |
| 2026-04-24 13:59 | 33.97916 | -111.80669 | 10228 ft | 262 kts | 198° |
| 2026-04-24 13:59 | 33.96180 | -111.81193 | 9850 ft | 256 kts | 198° |
| 2026-04-24 13:59 | 33.94470 | -111.81708 | 9476 ft | 249 kts | 197° |
| 2026-04-24 13:59 | 33.92814 | -111.82206 | 9107 ft | 244 kts | 197° |
| 2026-04-24 14:00 | 33.91181 | -111.82697 | 8739 ft | 240 kts | 197° |
| 2026-04-24 14:00 | 33.89560 | -111.83187 | 8370 ft | 237 kts | 197° |
| 2026-04-24 14:00 | 33.87976 | -111.83663 | 8011 ft | 234 kts | 196° |
| 2026-04-24 14:00 | 33.86396 | -111.84139 | 7648 ft | 232 kts | 196° |
| 2026-04-24 14:01 | 33.84838 | -111.84609 | 7283 ft | 230 kts | 196° |
| 2026-04-24 14:01 | 33.83320 | -111.85078 | 7041 ft | 224 kts | 196° |
| 2026-04-24 14:01 | 33.81836 | -111.85536 | 6997 ft | 211 kts | 196° |
| 2026-04-24 14:01 | 33.80455 | -111.85960 | 6974 ft | 196 kts | 196° |
| 2026-04-24 14:02 | 33.79173 | -111.86351 | 6818 ft | 190 kts | 196° |
| 2026-04-24 14:02 | 33.77871 | -111.86758 | 6469 ft | 192 kts | 195° |
| 2026-04-24 14:02 | 33.76584 | -111.87168 | 6122 ft | 186 kts | 196° |
| 2026-04-24 14:02 | 33.75395 | -111.87546 | 5713 ft | 174 kts | 195° |
| 2026-04-24 14:03 | 33.74248 | -111.87840 | 5310 ft | 165 kts | 189° |
| 2026-04-24 14:03 | 33.73146 | -111.87955 | 4994 ft | 151 kts | 183° |
| 2026-04-24 14:03 | 33.72124 | -111.87910 | 4652 ft | 146 kts | 176° |
| 2026-04-24 14:03 | 33.71128 | -111.87778 | 4283 ft | 144 kts | 173° |
| 2026-04-24 14:04 | 33.70151 | -111.87568 | 3911 ft | 141 kts | 169° |
| 2026-04-24 14:04 | 33.69208 | -111.87303 | 3539 ft | 139 kts | 166° |
| 2026-04-24 14:04 | 33.68292 | -111.86953 | 3157 ft | 137 kts | 161° |
| 2026-04-24 14:04 | 33.67391 | -111.86618 | 2814 ft | 133 kts | 174° |
| 2026-04-24 14:05 | 33.66501 | -111.86713 | 2568 ft | 125 kts | 196° |
| 2026-04-24 14:05 | 33.65739 | -111.87191 | 2364 ft | 122 kts | 218° |
| 2026-04-24 14:05 | 33.65096 | -111.87847 | 2188 ft | 120 kts | 222° |
| 2026-04-24 14:05 | 33.64486 | -111.88523 | 2005 ft | 119 kts | 224° |
| 2026-04-24 14:06 | 33.63893 | -111.89201 | 1816 ft | 118 kts | 224° |
| 2026-04-24 14:06 | 33.63310 | -111.89876 | 1623 ft | 116 kts | 224° |
| 2026-04-24 14:06 | 33.62745 | -111.90527 | 1489 ft | 107 kts | 224° |
| 2026-04-24 14:06 | 33.62315 | -111.91022 | 1474 ft | 52 kts | 224° |
| 2026-04-24 14:07 | 33.62225 | -111.91168 | 1469 ft | 12 kts | 313° |
| 2026-04-24 14:07 | 33.62266 | -111.91246 | 1468 ft | 10 kts | 234° |
| 2026-04-24 14:07 | 33.62217 | -111.91304 | 1466 ft | 7 kts | 223° |
| 2026-04-24 14:07 | 33.62207 | -111.91331 | 1466 ft | 0 kts | 299° |
| 2026-04-24 14:08 | 33.62209 | -111.91334 | 1466 ft | 0 kts | 315° |
| 2026-04-24 14:08 | 33.62210 | -111.91335 | 1465 ft | 0 kts | 315° |